createdAt,value
2019-03-16T00:03:01.461Z,7.91
2019-03-16T00:06:03.392Z,7.96
2019-03-16T00:09:06.048Z,8.03
2019-03-16T00:12:07.988Z,8.08
2019-03-16T00:15:09.957Z,8.12
2019-03-16T00:18:11.873Z,8.09
2019-03-16T00:21:13.802Z,8.07
2019-03-16T00:24:15.765Z,8.04
2019-03-16T00:27:17.715Z,8.03
2019-03-16T00:30:19.780Z,8.03
2019-03-16T00:33:21.674Z,8.03
2019-03-16T00:36:23.639Z,7.98
2019-03-16T00:39:25.557Z,7.97
2019-03-16T00:42:28.116Z,7.92
2019-03-16T00:45:30.720Z,7.83
2019-03-16T00:48:32.684Z,7.81
2019-03-16T00:51:34.604Z,7.79
2019-03-16T00:54:36.514Z,7.73
2019-03-16T00:57:38.598Z,7.73
2019-03-16T01:00:40.694Z,7.72
2019-03-16T01:03:42.635Z,7.71
2019-03-16T01:06:44.910Z,7.66
2019-03-16T01:09:47.919Z,7.67
2019-03-16T01:12:49.885Z,7.64
2019-03-16T01:15:51.806Z,7.57
2019-03-16T01:18:53.712Z,7.58
2019-03-16T01:21:55.591Z,7.57
2019-03-16T01:24:57.496Z,7.52
2019-03-16T01:27:59.901Z,7.46
2019-03-16T01:31:01.828Z,7.36
2019-03-16T01:34:03.759Z,7.34
2019-03-16T01:37:05.669Z,7.31
2019-03-16T01:40:09.211Z,7.27
2019-03-16T01:43:11.140Z,7.24
2019-03-16T01:46:13.708Z,7.22
2019-03-16T01:49:15.597Z,7.22
2019-03-16T01:52:17.460Z,7.19
2019-03-16T01:55:19.383Z,7.21
2019-03-16T01:58:21.351Z,7.18
2019-03-16T02:01:23.383Z,7.21
2019-03-16T02:04:25.318Z,7.18
2019-03-16T02:07:27.305Z,7.16
2019-03-16T02:10:29.337Z,7.16
2019-03-16T02:13:31.262Z,7.14
2019-03-16T02:16:33.678Z,7.13
2019-03-16T02:19:36.141Z,7.10
2019-03-16T02:22:38.422Z,7.08
2019-03-16T02:25:40.308Z,7.11
2019-03-16T02:28:42.319Z,7.09
2019-03-16T02:31:44.283Z,7.03
2019-03-16T02:34:46.225Z,7.03
2019-03-16T02:37:48.104Z,7.05
2019-03-16T02:40:50.121Z,6.98
2019-03-16T02:43:52.073Z,6.98
2019-03-16T02:46:54.398Z,6.95
2019-03-16T02:49:56.389Z,6.91
2019-03-16T02:52:58.347Z,6.86
2019-03-16T02:56:01.368Z,6.89
2019-03-16T02:59:03.286Z,6.88
2019-03-16T03:02:05.309Z,6.92
2019-03-16T03:05:08.911Z,6.92
2019-03-16T03:08:10.924Z,6.88
2019-03-16T03:11:12.872Z,6.88
2019-03-16T03:14:14.743Z,6.86
2019-03-16T03:17:16.638Z,6.83
2019-03-16T03:20:18.594Z,6.78
2019-03-16T03:23:20.527Z,6.76
2019-03-16T03:26:22.431Z,6.73
2019-03-16T03:29:24.367Z,6.69
2019-03-16T03:32:26.366Z,6.68
2019-03-16T03:35:29.452Z,6.70
2019-03-16T03:38:31.794Z,6.65
2019-03-16T03:41:34.276Z,6.63
2019-03-16T03:44:36.232Z,6.62
2019-03-16T03:47:38.178Z,6.61
2019-03-16T03:50:40.097Z,6.57
2019-03-16T03:53:42.083Z,6.56
2019-03-16T03:56:43.988Z,6.53
2019-03-16T03:59:46.344Z,6.49
2019-03-16T04:02:48.374Z,6.43
2019-03-16T04:05:50.350Z,6.37
2019-03-16T04:08:52.543Z,6.29
2019-03-16T04:11:54.460Z,6.23
2019-03-16T04:14:56.451Z,6.15
2019-03-16T04:17:58.350Z,6.10
2019-03-16T04:21:00.271Z,6.05
2019-03-16T04:24:02.228Z,6.04
2019-03-16T04:27:15.776Z,6.04
2019-03-16T04:30:10.081Z,6.02
2019-03-16T04:33:12.147Z,5.95
2019-03-16T04:36:14.031Z,5.97
2019-03-16T04:39:16.002Z,5.95
2019-03-16T04:42:17.954Z,5.93
2019-03-16T04:45:19.823Z,5.92
2019-03-16T04:48:22.396Z,5.85
2019-03-16T04:51:24.326Z,5.83
2019-03-16T04:54:26.265Z,5.76
2019-03-16T04:57:28.146Z,5.75
2019-03-16T05:00:30.290Z,5.75
2019-03-16T05:03:32.478Z,5.74
2019-03-16T05:06:34.465Z,5.77
2019-03-16T05:09:36.389Z,5.78
2019-03-16T05:12:38.541Z,5.78
2019-03-16T05:15:40.495Z,5.89
2019-03-16T05:18:42.639Z,6.02
2019-03-16T05:21:44.520Z,6.29
2019-03-16T05:24:46.481Z,6.46
2019-03-16T05:27:48.834Z,6.53
2019-03-16T05:30:50.710Z,6.51
2019-03-16T05:33:52.715Z,6.51
2019-03-16T05:36:56.051Z,6.54
2019-03-16T05:39:58.345Z,6.58
2019-03-16T05:43:00.197Z,6.67
2019-03-16T05:46:02.274Z,6.70
2019-03-16T05:49:04.171Z,6.73
2019-03-16T05:52:06.740Z,6.70
2019-03-16T05:55:08.835Z,6.76
2019-03-16T05:58:10.823Z,6.75
2019-03-16T06:01:12.746Z,6.89
2019-03-16T06:04:14.802Z,6.97
2019-03-16T06:07:16.706Z,6.98
2019-03-16T06:10:18.724Z,7.10
2019-03-16T06:13:20.642Z,7.19
2019-03-16T06:16:22.558Z,7.58
2019-03-16T06:19:24.514Z,7.86
2019-03-16T06:22:26.431Z,8.00
2019-03-16T06:25:28.399Z,8.00
2019-03-16T06:28:30.335Z,7.95
2019-03-16T06:31:32.359Z,7.97
2019-03-16T06:34:34.318Z,7.96
2019-03-16T06:37:36.283Z,7.96
2019-03-16T06:40:38.198Z,7.89
2019-03-16T06:43:40.246Z,7.81
2019-03-16T06:46:42.150Z,7.76
2019-03-16T06:49:44.101Z,7.79
2019-03-16T06:52:46.163Z,7.74
2019-03-16T06:55:48.161Z,7.79
2019-03-16T06:58:50.082Z,7.82
2019-03-16T07:01:52.239Z,7.80
2019-03-16T07:04:54.344Z,7.75
2019-03-16T07:07:56.353Z,7.79
2019-03-16T07:10:58.305Z,7.91
2019-03-16T07:14:01.339Z,8.19
2019-03-16T07:17:03.271Z,8.31
2019-03-16T07:20:08.103Z,8.40
2019-03-16T07:23:10.083Z,8.49
2019-03-16T07:26:15.092Z,8.51
2019-03-16T07:29:16.100Z,8.60
2019-03-16T07:32:18.067Z,8.70
2019-03-16T07:35:20.086Z,8.78
2019-03-16T07:38:22.039Z,8.89
2019-03-16T07:41:23.991Z,8.99
2019-03-16T07:44:25.910Z,9.12
2019-03-16T07:47:27.866Z,9.18
2019-03-16T07:50:29.796Z,9.21
2019-03-16T07:53:31.797Z,9.37
2019-03-16T07:56:33.714Z,9.63
2019-03-16T07:59:37.241Z,9.58
2019-03-16T08:02:39.512Z,9.48
2019-03-16T08:05:42.288Z,10.06
2019-03-16T08:08:46.247Z,10.77
2019-03-16T08:11:48.117Z,11.29
2019-03-16T08:14:50.052Z,11.79
2019-03-16T08:17:52.074Z,11.92
2019-03-16T08:20:53.981Z,12.10
2019-03-16T08:23:56.127Z,12.15
2019-03-16T08:26:58.046Z,12.14
2019-03-16T08:30:00.015Z,12.08
2019-03-16T08:33:01.901Z,11.95
2019-03-16T08:36:04.016Z,11.92
2019-03-16T08:39:06.428Z,11.83
2019-03-16T08:42:08.510Z,11.74
2019-03-16T08:45:10.545Z,11.96
2019-03-16T08:48:22.360Z,12.20
2019-03-16T08:51:16.457Z,12.37
2019-03-16T08:54:18.410Z,12.38
2019-03-16T08:57:20.332Z,12.50
2019-03-16T09:00:22.348Z,12.30
2019-03-16T09:03:24.304Z,12.09
2019-03-16T09:06:28.474Z,12.11
2019-03-16T09:09:30.423Z,11.89
2019-03-16T09:12:32.383Z,12.04
2019-03-16T09:15:34.435Z,12.04
2019-03-16T09:18:36.415Z,12.15
2019-03-16T09:21:38.352Z,12.27
2019-03-16T09:24:41.421Z,12.16
2019-03-16T09:27:43.317Z,12.25
2019-03-16T09:30:45.485Z,12.41
2019-03-16T09:33:47.424Z,12.27
2019-03-16T09:36:49.409Z,12.41
2019-03-16T09:39:51.551Z,12.40
2019-03-16T09:42:53.559Z,12.49
2019-03-16T09:45:55.521Z,12.76
2019-03-16T09:48:57.495Z,12.56
2019-03-16T09:51:59.473Z,12.57
2019-03-16T09:55:01.388Z,12.42
2019-03-16T09:58:03.403Z,12.40
2019-03-16T10:01:05.367Z,12.62
2019-03-16T10:04:07.314Z,12.72
2019-03-16T10:07:09.427Z,12.66
2019-03-16T10:10:14.612Z,12.67
2019-03-16T10:13:16.620Z,12.89
2019-03-16T10:16:18.716Z,12.98
2019-03-16T10:19:20.672Z,12.91
2019-03-16T10:22:22.760Z,13.11
2019-03-16T10:25:24.699Z,12.93
2019-03-16T10:28:26.691Z,13.03
2019-03-16T10:31:28.679Z,12.95
2019-03-16T10:34:30.659Z,12.68
2019-03-16T10:37:32.778Z,12.55
2019-03-16T10:40:34.801Z,12.50
2019-03-16T10:43:36.710Z,12.48
2019-03-16T10:46:38.637Z,12.43
2019-03-16T10:49:40.577Z,12.71
2019-03-16T10:52:42.547Z,12.98
2019-03-16T10:55:44.565Z,13.00
2019-03-16T10:58:55.980Z,12.85
2019-03-16T11:01:50.498Z,12.55
2019-03-16T11:04:52.495Z,12.45
2019-03-16T11:07:55.838Z,12.62
2019-03-16T11:10:58.044Z,12.86
2019-03-16T11:14:00.007Z,12.96
2019-03-16T11:17:01.968Z,12.96
2019-03-16T11:20:07.604Z,13.08
2019-03-16T11:23:09.636Z,13.15
2019-03-16T11:26:11.688Z,13.11
2019-03-16T11:29:13.797Z,13.22
2019-03-16T11:32:15.773Z,12.96
2019-03-16T11:35:17.790Z,12.98
2019-03-16T11:38:19.902Z,13.05
2019-03-16T11:41:21.877Z,12.90
2019-03-16T11:44:23.858Z,12.85
2019-03-16T11:47:25.869Z,12.90
2019-03-16T11:50:27.832Z,12.92
2019-03-16T11:53:30.018Z,12.92
2019-03-16T11:56:32.003Z,12.77
2019-03-16T11:59:33.961Z,12.71
2019-03-16T12:02:35.859Z,12.76
2019-03-16T12:05:37.801Z,12.98
2019-03-16T12:08:39.950Z,13.15
2019-03-16T12:11:41.944Z,13.11
2019-03-16T12:14:43.874Z,13.11
2019-03-16T12:17:46.079Z,13.05
2019-03-16T12:20:48.003Z,12.96
2019-03-16T12:23:49.960Z,12.74
2019-03-16T12:26:51.925Z,12.62
2019-03-16T12:29:53.877Z,12.44
2019-03-16T12:32:55.836Z,12.34
2019-03-16T12:35:58.000Z,12.25
2019-03-16T12:39:00.036Z,12.28
2019-03-16T12:42:02.029Z,12.38
2019-03-16T12:45:10.485Z,12.35
2019-03-16T12:48:12.372Z,12.48
2019-03-16T12:51:14.305Z,12.60
2019-03-16T12:54:16.238Z,12.58
2019-03-16T12:57:18.212Z,12.62
2019-03-16T13:00:20.222Z,12.62
2019-03-16T13:03:22.283Z,12.79
2019-03-16T13:06:25.511Z,12.79
2019-03-16T13:09:30.486Z,12.86
2019-03-16T13:12:32.452Z,12.95
2019-03-16T13:15:34.365Z,13.13
2019-03-16T13:18:36.910Z,13.07
2019-03-16T13:21:38.989Z,13.04
2019-03-16T13:24:41.003Z,12.95
2019-03-16T13:27:42.949Z,12.89
2019-03-16T13:30:44.942Z,12.84
2019-03-16T13:33:47.023Z,12.82
2019-03-16T13:36:49.047Z,12.81
2019-03-16T13:39:51.169Z,12.79
2019-03-16T13:42:53.238Z,12.78
2019-03-16T13:45:55.199Z,12.62
2019-03-16T13:48:57.154Z,12.43
2019-03-16T13:51:59.084Z,12.29
2019-03-16T13:55:01.466Z,12.25
2019-03-16T13:58:04.946Z,12.26
2019-03-16T14:01:07.012Z,12.32
2019-03-16T14:04:08.985Z,12.35
2019-03-16T14:07:12.274Z,12.17
2019-03-16T14:10:19.192Z,12.08
2019-03-16T14:13:21.158Z,11.96
2019-03-16T14:16:23.149Z,11.90
2019-03-16T14:19:25.472Z,11.80
2019-03-16T14:22:28.592Z,11.77
2019-03-16T14:25:30.584Z,11.69
2019-03-16T14:28:33.076Z,11.56
2019-03-16T14:31:35.296Z,11.40
2019-03-16T14:34:37.253Z,11.32
2019-03-16T14:37:39.563Z,11.27
2019-03-16T14:40:41.641Z,11.21
2019-03-16T14:43:43.555Z,11.28
2019-03-16T14:46:45.519Z,11.31
2019-03-16T14:49:47.473Z,11.19
2019-03-16T14:52:49.395Z,11.15
2019-03-16T14:55:51.318Z,11.13
2019-03-16T14:58:53.315Z,11.08
2019-03-16T15:01:55.329Z,11.05
2019-03-16T15:04:57.232Z,11.07
2019-03-16T15:07:59.162Z,11.01
2019-03-16T15:11:01.276Z,10.99
2019-03-16T15:14:03.522Z,10.98
2019-03-16T15:17:05.435Z,10.95
2019-03-16T15:20:09.692Z,10.93
2019-03-16T15:23:11.673Z,10.91
2019-03-16T15:26:13.728Z,10.91
2019-03-16T15:29:15.670Z,10.92
2019-03-16T15:32:17.703Z,10.86
2019-03-16T15:35:19.654Z,10.80
2019-03-16T15:38:22.176Z,10.79
2019-03-16T15:41:24.172Z,10.75
2019-03-16T15:44:26.104Z,10.70
2019-03-16T15:47:29.999Z,10.62
2019-03-16T15:50:31.932Z,10.56
2019-03-16T15:53:33.956Z,10.46
2019-03-16T15:56:35.980Z,10.23
2019-03-16T15:59:39.717Z,10.20
2019-03-16T16:02:41.758Z,10.05
2019-03-16T16:05:43.761Z,9.90
2019-03-16T16:08:45.855Z,9.60
2019-03-16T16:11:48.071Z,9.51
2019-03-16T16:14:50.078Z,9.33
2019-03-16T16:17:52.094Z,9.20
2019-03-16T16:20:54.157Z,9.14
2019-03-16T16:23:56.088Z,9.06
2019-03-16T16:26:57.997Z,9.05
2019-03-16T16:30:03.867Z,8.95
2019-03-16T16:33:06.324Z,8.90
2019-03-16T16:36:08.683Z,8.88
2019-03-16T16:39:14.495Z,8.80
2019-03-16T16:42:16.853Z,8.64
2019-03-16T16:45:18.867Z,8.49
2019-03-16T16:48:21.419Z,8.39
2019-03-16T16:51:23.417Z,8.30
2019-03-16T16:54:25.379Z,8.33
2019-03-16T16:57:27.297Z,8.32
2019-03-16T17:00:29.274Z,8.30
2019-03-16T17:03:31.261Z,8.30
2019-03-16T17:06:33.198Z,8.29
2019-03-16T17:09:35.397Z,8.33
2019-03-16T17:12:37.574Z,8.32
2019-03-16T17:15:39.484Z,8.34
2019-03-16T17:18:42.491Z,8.34
2019-03-16T17:21:44.784Z,8.33
2019-03-16T17:24:46.747Z,8.33
2019-03-16T17:27:48.709Z,8.34
2019-03-16T17:30:51.822Z,8.37
2019-03-16T17:33:54.864Z,8.37
2019-03-16T17:36:56.748Z,8.40
2019-03-16T17:40:00.512Z,8.40
2019-03-16T17:43:02.532Z,8.39
2019-03-16T17:46:04.470Z,8.36
2019-03-16T17:49:06.412Z,8.32
2019-03-16T17:52:08.397Z,8.30
2019-03-16T17:55:12.889Z,8.30
2019-03-16T17:58:14.881Z,8.30
2019-03-16T18:01:16.951Z,8.22
2019-03-16T18:04:19.452Z,8.09
2019-03-16T18:07:21.525Z,7.99
2019-03-16T18:10:23.487Z,7.85
2019-03-16T18:13:27.480Z,7.74
2019-03-16T18:16:29.445Z,7.71
2019-03-16T18:19:31.505Z,7.68
2019-03-16T18:22:33.974Z,7.68
2019-03-16T18:25:37.743Z,7.77
2019-03-16T18:28:40.130Z,7.83
2019-03-16T18:31:42.105Z,7.84
2019-03-16T18:34:44.143Z,7.88
2019-03-16T18:37:46.078Z,7.83
2019-03-16T18:40:48.041Z,7.80
2019-03-16T18:43:50.128Z,7.78
2019-03-16T18:46:52.269Z,7.66
2019-03-16T18:49:54.593Z,7.60
2019-03-16T18:52:56.593Z,7.55
2019-03-16T18:56:01.297Z,7.49
2019-03-16T18:59:03.301Z,7.46
2019-03-16T19:02:05.297Z,7.44
2019-03-16T19:05:11.019Z,7.40
2019-03-16T19:08:13.062Z,7.31
2019-03-16T19:11:15.323Z,7.27
2019-03-16T19:14:18.220Z,7.24
2019-03-16T19:17:21.930Z,7.21
2019-03-16T19:20:26.996Z,7.21
2019-03-16T19:23:32.722Z,7.20
2019-03-16T19:26:34.682Z,7.22
2019-03-16T19:29:38.588Z,7.22
2019-03-16T19:32:43.124Z,7.26
2019-03-16T19:35:45.660Z,7.27
2019-03-16T19:38:47.972Z,7.23
2019-03-16T19:41:52.451Z,7.23
2019-03-16T19:44:57.053Z,7.25
2019-03-16T19:48:01.822Z,7.25
2019-03-16T19:51:04.404Z,7.31
2019-03-16T19:54:06.733Z,7.39
2019-03-16T19:57:15.871Z,7.46
2019-03-16T20:00:14.358Z,7.52
2019-03-16T20:03:16.267Z,7.62
2019-03-16T20:06:25.778Z,7.69
2019-03-16T20:09:24.701Z,7.78
2019-03-16T20:12:30.711Z,7.82
2019-03-16T20:15:32.873Z,7.84
2019-03-16T20:18:36.515Z,7.84
2019-03-16T20:21:40.104Z,7.88
2019-03-16T20:24:43.823Z,7.93
2019-03-16T20:27:45.992Z,7.95
2019-03-16T20:30:48.106Z,8.00
2019-03-16T20:33:51.960Z,8.04
2019-03-16T20:36:53.905Z,8.08
2019-03-16T20:39:55.984Z,8.11
2019-03-16T20:42:58.117Z,8.15
2019-03-16T20:46:00.576Z,8.17
2019-03-16T20:49:02.560Z,8.18
2019-03-16T20:52:04.588Z,8.20
2019-03-16T20:55:07.947Z,8.21
2019-03-16T20:58:09.948Z,8.25
2019-03-16T21:01:12.027Z,8.27
2019-03-16T21:04:14.093Z,8.30
2019-03-16T21:07:16.603Z,8.32
2019-03-16T21:10:18.839Z,8.37
2019-03-16T21:13:25.032Z,8.39
2019-03-16T21:16:27.111Z,8.40
2019-03-16T21:19:29.595Z,8.43
2019-03-16T21:22:38.543Z,8.46
2019-03-16T21:25:37.000Z,8.51
2019-03-16T21:28:39.505Z,8.55
2019-03-16T21:31:41.441Z,8.61
2019-03-16T21:34:43.548Z,8.68
2019-03-16T21:37:45.627Z,8.72
2019-03-16T21:40:48.849Z,8.73
2019-03-16T21:43:50.827Z,8.76
2019-03-16T21:46:53.906Z,8.76
2019-03-16T21:49:56.794Z,8.75
2019-03-16T21:52:58.787Z,8.76
2019-03-16T21:56:00.791Z,8.76
2019-03-16T21:59:02.737Z,8.76
2019-03-16T22:02:06.349Z,8.78
2019-03-16T22:05:08.942Z,8.75
2019-03-16T22:08:11.542Z,8.75
2019-03-16T22:11:13.519Z,8.78
2019-03-16T22:14:15.513Z,8.84
2019-03-16T22:17:17.581Z,8.90
2019-03-16T22:20:20.433Z,8.94
2019-03-16T22:23:22.490Z,8.96
2019-03-16T22:26:24.426Z,9.01
2019-03-16T22:29:26.309Z,9.05
2019-03-16T22:32:28.270Z,9.11
2019-03-16T22:35:30.270Z,9.11
2019-03-16T22:38:32.260Z,9.11
2019-03-16T22:41:34.196Z,9.15
2019-03-16T22:44:36.115Z,9.19
2019-03-16T22:47:38.116Z,9.24
2019-03-16T22:50:40.141Z,9.22
2019-03-16T22:53:42.087Z,9.26
2019-03-16T22:56:44.013Z,9.31
2019-03-16T22:59:46.000Z,9.34
2019-03-16T23:02:47.958Z,9.35
2019-03-16T23:05:49.879Z,9.37
2019-03-16T23:08:51.872Z,9.42
2019-03-16T23:11:53.833Z,9.42
2019-03-16T23:15:09.614Z,9.43
2019-03-16T23:18:11.667Z,9.46
2019-03-16T23:21:13.708Z,9.51
2019-03-16T23:24:15.707Z,9.57
2019-03-16T23:27:17.660Z,9.63
2019-03-16T23:30:19.570Z,9.64
2019-03-16T23:33:21.622Z,9.65
2019-03-16T23:36:24.763Z,9.65
2019-03-16T23:39:27.521Z,9.64
2019-03-16T23:42:29.426Z,9.67
2019-03-16T23:45:31.446Z,9.69
2019-03-16T23:48:33.524Z,9.67
2019-03-16T23:51:35.627Z,9.69
2019-03-16T23:54:37.632Z,9.67
2019-03-16T23:57:39.873Z,9.69
